sensor_id;sensor_type;location;lat;lon;timestamp;P1;durP1;ratioP1;P2;durP2;ratioP2
70757;SDS011;59316;52.964;7.102;2022-08-21T00:07:56;30.40;;;13.43;;
70757;SDS011;59316;52.964;7.102;2022-08-21T00:13:00;29.17;;;15.52;;
70757;SDS011;59316;52.964;7.102;2022-08-21T00:18:03;30.88;;;14.52;;
70757;SDS011;59316;52.964;7.102;2022-08-21T00:23:07;25.48;;;13.75;;
70757;SDS011;59316;52.964;7.102;2022-08-21T00:28:10;30.30;;;16.00;;
70757;SDS011;59316;52.964;7.102;2022-08-21T00:33:13;30.55;;;15.63;;
70757;SDS011;59316;52.964;7.102;2022-08-21T00:38:15;29.20;;;13.85;;
70757;SDS011;59316;52.964;7.102;2022-08-21T00:43:19;19.83;;;10.20;;
70757;SDS011;59316;52.964;7.102;2022-08-21T00:48:23;14.57;;;9.45;;
70757;SDS011;59316;52.964;7.102;2022-08-21T00:58:29;24.90;;;11.82;;
70757;SDS011;59316;52.964;7.102;2022-08-21T01:03:33;16.90;;;9.95;;
70757;SDS011;59316;52.964;7.102;2022-08-21T01:08:36;23.02;;;12.68;;
70757;SDS011;59316;52.964;7.102;2022-08-21T01:13:47;26.10;;;12.77;;
70757;SDS011;59316;52.964;7.102;2022-08-21T01:18:50;26.55;;;14.05;;
70757;SDS011;59316;52.964;7.102;2022-08-21T01:23:53;30.17;;;15.00;;
70757;SDS011;59316;52.964;7.102;2022-08-21T01:34:40;38.75;;;16.92;;
70757;SDS011;59316;52.964;7.102;2022-08-21T01:39:45;42.03;;;18.95;;
70757;SDS011;59316;52.964;7.102;2022-08-21T01:44:48;42.90;;;19.85;;
70757;SDS011;59316;52.964;7.102;2022-08-21T01:49:55;27.45;;;13.90;;
70757;SDS011;59316;52.964;7.102;2022-08-21T01:54:57;29.85;;;14.60;;
70757;SDS011;59316;52.964;7.102;2022-08-21T01:59:59;27.55;;;13.43;;
70757;SDS011;59316;52.964;7.102;2022-08-21T02:05:02;19.47;;;12.77;;
70757;SDS011;59316;52.964;7.102;2022-08-21T02:10:06;21.90;;;11.57;;
70757;SDS011;59316;52.964;7.102;2022-08-21T02:15:11;20.77;;;11.73;;
70757;SDS011;59316;52.964;7.102;2022-08-21T02:20:33;21.23;;;10.95;;
70757;SDS011;59316;52.964;7.102;2022-08-21T02:30:41;20.83;;;11.73;;
70757;SDS011;59316;52.964;7.102;2022-08-21T02:35:48;17.58;;;10.82;;
70757;SDS011;59316;52.964;7.102;2022-08-21T02:40:51;23.48;;;12.30;;
70757;SDS011;59316;52.964;7.102;2022-08-21T02:45:55;16.23;;;11.05;;
70757;SDS011;59316;52.964;7.102;2022-08-21T02:51:00;22.88;;;12.23;;
70757;SDS011;59316;52.964;7.102;2022-08-21T02:56:05;20.75;;;11.63;;
70757;SDS011;59316;52.964;7.102;2022-08-21T03:01:11;22.55;;;12.80;;
70757;SDS011;59316;52.964;7.102;2022-08-21T03:06:15;26.77;;;12.63;;
70757;SDS011;59316;52.964;7.102;2022-08-21T03:11:18;23.15;;;12.93;;
70757;SDS011;59316;52.964;7.102;2022-08-21T03:16:20;40.25;;;13.98;;
70757;SDS011;59316;52.964;7.102;2022-08-21T03:21:23;25.92;;;14.98;;
70757;SDS011;59316;52.964;7.102;2022-08-21T03:26:25;27.02;;;14.30;;
70757;SDS011;59316;52.964;7.102;2022-08-21T03:31:28;31.92;;;15.82;;
70757;SDS011;59316;52.964;7.102;2022-08-21T03:36:31;28.40;;;15.02;;
70757;SDS011;59316;52.964;7.102;2022-08-21T03:41:33;40.03;;;16.70;;
70757;SDS011;59316;52.964;7.102;2022-08-21T03:46:35;37.17;;;16.33;;
70757;SDS011;59316;52.964;7.102;2022-08-21T03:51:37;35.75;;;17.77;;
70757;SDS011;59316;52.964;7.102;2022-08-21T03:56:40;39.38;;;19.17;;
70757;SDS011;59316;52.964;7.102;2022-08-21T04:01:55;38.77;;;18.80;;
70757;SDS011;59316;52.964;7.102;2022-08-21T04:06:59;44.08;;;19.92;;
70757;SDS011;59316;52.964;7.102;2022-08-21T04:12:02;51.27;;;20.53;;
70757;SDS011;59316;52.964;7.102;2022-08-21T04:17:05;60.53;;;21.30;;
70757;SDS011;59316;52.964;7.102;2022-08-21T04:22:07;48.70;;;19.05;;
70757;SDS011;59316;52.964;7.102;2022-08-21T04:27:09;53.38;;;19.77;;
70757;SDS011;59316;52.964;7.102;2022-08-21T04:32:11;45.28;;;19.88;;
70757;SDS011;59316;52.964;7.102;2022-08-21T04:37:13;59.85;;;22.67;;
70757;SDS011;59316;52.964;7.102;2022-08-21T04:42:15;54.88;;;22.15;;
70757;SDS011;59316;52.964;7.102;2022-08-21T04:47:18;68.97;;;23.98;;
70757;SDS011;59316;52.964;7.102;2022-08-21T04:52:21;59.55;;;22.80;;
70757;SDS011;59316;52.964;7.102;2022-08-21T04:57:24;63.92;;;23.42;;
70757;SDS011;59316;52.964;7.102;2022-08-21T05:02:47;66.97;;;23.98;;
70757;SDS011;59316;52.964;7.102;2022-08-21T05:07:50;66.00;;;24.63;;
70757;SDS011;59316;52.964;7.102;2022-08-21T05:12:55;68.10;;;24.70;;
70757;SDS011;59316;52.964;7.102;2022-08-21T05:17:57;72.20;;;23.90;;
70757;SDS011;59316;52.964;7.102;2022-08-21T05:23:09;79.18;;;25.85;;
70757;SDS011;59316;52.964;7.102;2022-08-21T05:28:13;73.95;;;24.52;;
70757;SDS011;59316;52.964;7.102;2022-08-21T05:33:15;76.13;;;25.95;;
70757;SDS011;59316;52.964;7.102;2022-08-21T05:38:18;78.18;;;27.55;;
70757;SDS011;59316;52.964;7.102;2022-08-21T05:43:20;84.10;;;26.70;;
70757;SDS011;59316;52.964;7.102;2022-08-21T05:48:23;89.90;;;28.43;;
70757;SDS011;59316;52.964;7.102;2022-08-21T05:53:26;79.20;;;27.17;;
70757;SDS011;59316;52.964;7.102;2022-08-21T05:58:28;84.28;;;28.92;;
70757;SDS011;59316;52.964;7.102;2022-08-21T06:03:35;70.78;;;27.25;;
70757;SDS011;59316;52.964;7.102;2022-08-21T06:08:39;60.78;;;25.80;;
70757;SDS011;59316;52.964;7.102;2022-08-21T06:13:41;47.20;;;22.15;;
70757;SDS011;59316;52.964;7.102;2022-08-21T06:18:43;31.60;;;15.10;;
70757;SDS011;59316;52.964;7.102;2022-08-21T06:23:46;21.35;;;10.07;;
70757;SDS011;59316;52.964;7.102;2022-08-21T06:28:50;16.33;;;8.90;;
70757;SDS011;59316;52.964;7.102;2022-08-21T06:33:53;14.88;;;7.80;;
70757;SDS011;59316;52.964;7.102;2022-08-21T06:38:56;10.35;;;7.60;;
70757;SDS011;59316;52.964;7.102;2022-08-21T06:43:58;12.95;;;6.97;;
70757;SDS011;59316;52.964;7.102;2022-08-21T06:49:01;12.63;;;6.47;;
70757;SDS011;59316;52.964;7.102;2022-08-21T06:54:03;10.70;;;6.20;;
70757;SDS011;59316;52.964;7.102;2022-08-21T06:59:05;10.75;;;5.57;;
70757;SDS011;59316;52.964;7.102;2022-08-21T07:04:08;8.40;;;5.75;;
70757;SDS011;59316;52.964;7.102;2022-08-21T07:09:10;8.15;;;5.07;;
70757;SDS011;59316;52.964;7.102;2022-08-21T07:14:12;9.85;;;5.13;;
70757;SDS011;59316;52.964;7.102;2022-08-21T07:19:21;9.82;;;4.72;;
70757;SDS011;59316;52.964;7.102;2022-08-21T07:24:23;12.30;;;4.47;;
70757;SDS011;59316;52.964;7.102;2022-08-21T07:29:25;10.80;;;4.05;;
70757;SDS011;59316;52.964;7.102;2022-08-21T07:34:28;8.57;;;3.80;;
70757;SDS011;59316;52.964;7.102;2022-08-21T07:39:30;8.13;;;3.33;;
70757;SDS011;59316;52.964;7.102;2022-08-21T07:44:32;9.98;;;3.30;;
70757;SDS011;59316;52.964;7.102;2022-08-21T07:49:34;9.68;;;3.17;;
70757;SDS011;59316;52.964;7.102;2022-08-21T07:54:44;9.07;;;3.17;;
70757;SDS011;59316;52.964;7.102;2022-08-21T07:59:57;5.65;;;2.55;;
70757;SDS011;59316;52.964;7.102;2022-08-21T08:05:12;7.25;;;2.17;;
70757;SDS011;59316;52.964;7.102;2022-08-21T08:10:15;10.35;;;2.38;;
70757;SDS011;59316;52.964;7.102;2022-08-21T08:15:19;6.60;;;2.10;;
70757;SDS011;59316;52.964;7.102;2022-08-21T08:20:32;7.43;;;2.63;;
70757;SDS011;59316;52.964;7.102;2022-08-21T08:25:37;6.47;;;2.33;;
70757;SDS011;59316;52.964;7.102;2022-08-21T08:35:48;8.30;;;1.80;;
70757;SDS011;59316;52.964;7.102;2022-08-21T08:41:12;6.80;;;1.90;;
70757;SDS011;59316;52.964;7.102;2022-08-21T08:46:18;7.80;;;2.38;;
70757;SDS011;59316;52.964;7.102;2022-08-21T08:51:38;5.43;;;1.90;;
70757;SDS011;59316;52.964;7.102;2022-08-21T08:56:54;5.55;;;1.90;;
70757;SDS011;59316;52.964;7.102;2022-08-21T09:01:56;4.55;;;1.90;;
70757;SDS011;59316;52.964;7.102;2022-08-21T09:07:06;7.53;;;2.47;;
70757;SDS011;59316;52.964;7.102;2022-08-21T09:12:25;9.60;;;2.30;;
70757;SDS011;59316;52.964;7.102;2022-08-21T09:17:55;8.70;;;2.43;;
70757;SDS011;59316;52.964;7.102;2022-08-21T09:28:46;4.65;;;2.03;;
70757;SDS011;59316;52.964;7.102;2022-08-21T09:34:01;9.48;;;1.95;;
70757;SDS011;59316;52.964;7.102;2022-08-21T09:39:09;6.20;;;2.05;;
70757;SDS011;59316;52.964;7.102;2022-08-21T09:44:12;5.20;;;1.75;;
70757;SDS011;59316;52.964;7.102;2022-08-21T09:49:25;8.90;;;1.90;;
70757;SDS011;59316;52.964;7.102;2022-08-21T09:54:34;3.72;;;1.70;;
70757;SDS011;59316;52.964;7.102;2022-08-21T09:59:40;3.70;;;1.60;;
70757;SDS011;59316;52.964;7.102;2022-08-21T10:04:43;5.28;;;1.73;;
70757;SDS011;59316;52.964;7.102;2022-08-21T10:25:48;6.03;;;1.83;;
70757;SDS011;59316;52.964;7.102;2022-08-21T10:31:16;4.28;;;1.52;;
70757;SDS011;59316;52.964;7.102;2022-08-21T10:36:32;5.45;;;1.77;;
70757;SDS011;59316;52.964;7.102;2022-08-21T10:47:12;5.07;;;1.88;;
70757;SDS011;59316;52.964;7.102;2022-08-21T10:58:04;6.63;;;2.22;;
70757;SDS011;59316;52.964;7.102;2022-08-21T11:03:25;6.30;;;1.98;;
70757;SDS011;59316;52.964;7.102;2022-08-21T11:08:48;4.75;;;1.75;;
70757;SDS011;59316;52.964;7.102;2022-08-21T11:13:58;3.60;;;1.70;;
70757;SDS011;59316;52.964;7.102;2022-08-21T11:19:06;4.43;;;1.35;;
70757;SDS011;59316;52.964;7.102;2022-08-21T11:24:17;4.10;;;1.45;;
70757;SDS011;59316;52.964;7.102;2022-08-21T11:29:38;2.53;;;1.25;;
70757;SDS011;59316;52.964;7.102;2022-08-21T11:45:03;3.10;;;1.60;;
70757;SDS011;59316;52.964;7.102;2022-08-21T11:50:23;3.28;;;1.30;;
70757;SDS011;59316;52.964;7.102;2022-08-21T12:01:18;2.95;;;1.20;;
70757;SDS011;59316;52.964;7.102;2022-08-21T12:06:30;3.60;;;1.25;;
70757;SDS011;59316;52.964;7.102;2022-08-21T12:11:48;2.95;;;1.17;;
70757;SDS011;59316;52.964;7.102;2022-08-21T12:16:53;5.07;;;1.30;;
70757;SDS011;59316;52.964;7.102;2022-08-21T12:22:11;4.95;;;1.20;;
70757;SDS011;59316;52.964;7.102;2022-08-21T12:32:31;4.55;;;1.20;;
70757;SDS011;59316;52.964;7.102;2022-08-21T12:37:47;4.93;;;1.20;;
70757;SDS011;59316;52.964;7.102;2022-08-21T12:42:54;4.35;;;1.45;;
70757;SDS011;59316;52.964;7.102;2022-08-21T12:48:06;3.42;;;1.00;;
70757;SDS011;59316;52.964;7.102;2022-08-21T12:53:15;7.60;;;2.05;;
70757;SDS011;59316;52.964;7.102;2022-08-21T12:58:25;4.82;;;1.00;;
70757;SDS011;59316;52.964;7.102;2022-08-21T13:03:27;4.20;;;1.10;;
70757;SDS011;59316;52.964;7.102;2022-08-21T13:08:30;5.85;;;1.23;;
70757;SDS011;59316;52.964;7.102;2022-08-21T13:13:42;4.35;;;1.30;;
70757;SDS011;59316;52.964;7.102;2022-08-21T13:19:02;4.35;;;1.20;;
70757;SDS011;59316;52.964;7.102;2022-08-21T13:24:20;4.05;;;1.20;;
70757;SDS011;59316;52.964;7.102;2022-08-21T13:29:44;3.63;;;1.10;;
70757;SDS011;59316;52.964;7.102;2022-08-21T13:34:57;4.13;;;1.40;;
70757;SDS011;59316;52.964;7.102;2022-08-21T13:40:02;6.18;;;1.38;;
70757;SDS011;59316;52.964;7.102;2022-08-21T13:45:30;5.95;;;1.38;;
70757;SDS011;59316;52.964;7.102;2022-08-21T13:50:35;5.72;;;1.50;;
70757;SDS011;59316;52.964;7.102;2022-08-21T13:55:40;6.60;;;1.50;;
70757;SDS011;59316;52.964;7.102;2022-08-21T14:00:48;7.00;;;1.70;;
70757;SDS011;59316;52.964;7.102;2022-08-21T14:05:52;5.75;;;2.15;;
70757;SDS011;59316;52.964;7.102;2022-08-21T14:10:54;9.02;;;2.00;;
70757;SDS011;59316;52.964;7.102;2022-08-21T14:15:59;4.40;;;1.52;;
70757;SDS011;59316;52.964;7.102;2022-08-21T14:21:05;8.60;;;2.42;;
70757;SDS011;59316;52.964;7.102;2022-08-21T14:26:09;5.35;;;2.38;;
70757;SDS011;59316;52.964;7.102;2022-08-21T14:31:15;5.63;;;1.95;;
70757;SDS011;59316;52.964;7.102;2022-08-21T14:36:20;5.93;;;2.25;;
70757;SDS011;59316;52.964;7.102;2022-08-21T14:46:26;7.07;;;1.90;;
70757;SDS011;59316;52.964;7.102;2022-08-21T14:51:30;4.30;;;1.63;;
70757;SDS011;59316;52.964;7.102;2022-08-21T14:56:33;6.55;;;1.80;;
70757;SDS011;59316;52.964;7.102;2022-08-21T15:01:37;5.13;;;1.50;;
70757;SDS011;59316;52.964;7.102;2022-08-21T15:06:41;6.90;;;1.98;;
70757;SDS011;59316;52.964;7.102;2022-08-21T15:11:43;5.88;;;2.00;;
70757;SDS011;59316;52.964;7.102;2022-08-21T15:16:45;6.05;;;1.92;;
70757;SDS011;59316;52.964;7.102;2022-08-21T15:21:48;5.18;;;1.80;;
70757;SDS011;59316;52.964;7.102;2022-08-21T15:31:58;7.05;;;2.08;;
70757;SDS011;59316;52.964;7.102;2022-08-21T15:37:02;6.03;;;2.17;;
70757;SDS011;59316;52.964;7.102;2022-08-21T15:47:13;6.55;;;1.75;;
70757;SDS011;59316;52.964;7.102;2022-08-21T15:52:23;4.22;;;1.70;;
70757;SDS011;59316;52.964;7.102;2022-08-21T16:02:29;4.30;;;1.85;;
70757;SDS011;59316;52.964;7.102;2022-08-21T16:07:33;7.25;;;1.80;;
70757;SDS011;59316;52.964;7.102;2022-08-21T16:12:40;6.75;;;1.58;;
70757;SDS011;59316;52.964;7.102;2022-08-21T16:17:45;11.35;;;1.75;;
70757;SDS011;59316;52.964;7.102;2022-08-21T16:22:49;8.38;;;2.30;;
70757;SDS011;59316;52.964;7.102;2022-08-21T16:27:53;6.88;;;2.00;;
70757;SDS011;59316;52.964;7.102;2022-08-21T16:33:01;6.10;;;1.92;;
70757;SDS011;59316;52.964;7.102;2022-08-21T16:38:05;8.13;;;1.80;;
70757;SDS011;59316;52.964;7.102;2022-08-21T16:43:07;8.00;;;2.03;;
70757;SDS011;59316;52.964;7.102;2022-08-21T16:48:09;5.57;;;1.52;;
70757;SDS011;59316;52.964;7.102;2022-08-21T16:53:11;6.47;;;1.70;;
70757;SDS011;59316;52.964;7.102;2022-08-21T16:58:16;8.48;;;2.33;;
70757;SDS011;59316;52.964;7.102;2022-08-21T17:03:24;10.57;;;2.47;;
70757;SDS011;59316;52.964;7.102;2022-08-21T17:08:32;7.97;;;2.13;;
70757;SDS011;59316;52.964;7.102;2022-08-21T17:13:34;8.13;;;2.47;;
70757;SDS011;59316;52.964;7.102;2022-08-21T17:18:37;9.13;;;2.25;;
70757;SDS011;59316;52.964;7.102;2022-08-21T17:23:39;7.65;;;2.30;;
70757;SDS011;59316;52.964;7.102;2022-08-21T17:33:46;12.35;;;2.80;;
70757;SDS011;59316;52.964;7.102;2022-08-21T17:38:51;8.40;;;2.30;;
70757;SDS011;59316;52.964;7.102;2022-08-21T17:43:53;8.02;;;2.83;;
70757;SDS011;59316;52.964;7.102;2022-08-21T17:53:59;9.80;;;2.60;;
70757;SDS011;59316;52.964;7.102;2022-08-21T17:59:01;8.57;;;2.80;;
70757;SDS011;59316;52.964;7.102;2022-08-21T18:04:06;12.52;;;2.80;;
70757;SDS011;59316;52.964;7.102;2022-08-21T18:09:08;10.40;;;2.83;;
70757;SDS011;59316;52.964;7.102;2022-08-21T18:14:12;6.43;;;2.40;;
70757;SDS011;59316;52.964;7.102;2022-08-21T18:19:14;10.00;;;2.90;;
70757;SDS011;59316;52.964;7.102;2022-08-21T18:24:17;8.30;;;2.35;;
70757;SDS011;59316;52.964;7.102;2022-08-21T18:29:19;7.53;;;2.60;;
70757;SDS011;59316;52.964;7.102;2022-08-21T18:34:25;11.07;;;3.00;;
70757;SDS011;59316;52.964;7.102;2022-08-21T18:39:30;12.38;;;3.40;;
70757;SDS011;59316;52.964;7.102;2022-08-21T18:44:38;8.25;;;2.72;;
70757;SDS011;59316;52.964;7.102;2022-08-21T18:49:42;8.57;;;2.90;;
70757;SDS011;59316;52.964;7.102;2022-08-21T18:54:45;15.70;;;4.20;;
70757;SDS011;59316;52.964;7.102;2022-08-21T18:59:50;5.85;;;2.88;;
70757;SDS011;59316;52.964;7.102;2022-08-21T19:04:52;9.93;;;2.80;;
70757;SDS011;59316;52.964;7.102;2022-08-21T19:09:55;9.40;;;2.83;;
70757;SDS011;59316;52.964;7.102;2022-08-21T19:15:18;9.32;;;2.83;;
70757;SDS011;59316;52.964;7.102;2022-08-21T19:20:25;11.98;;;3.30;;
70757;SDS011;59316;52.964;7.102;2022-08-21T19:25:29;10.77;;;3.42;;
70757;SDS011;59316;52.964;7.102;2022-08-21T19:30:40;9.48;;;3.80;;
70757;SDS011;59316;52.964;7.102;2022-08-21T19:35:47;7.88;;;3.20;;
70757;SDS011;59316;52.964;7.102;2022-08-21T19:40:53;11.15;;;3.22;;
70757;SDS011;59316;52.964;7.102;2022-08-21T19:45:56;9.88;;;3.45;;
70757;SDS011;59316;52.964;7.102;2022-08-21T19:50:59;8.73;;;3.55;;
70757;SDS011;59316;52.964;7.102;2022-08-21T19:56:01;7.63;;;3.43;;
70757;SDS011;59316;52.964;7.102;2022-08-21T20:01:04;8.50;;;3.03;;
70757;SDS011;59316;52.964;7.102;2022-08-21T20:06:18;9.55;;;3.58;;
70757;SDS011;59316;52.964;7.102;2022-08-21T20:11:23;7.60;;;3.38;;
70757;SDS011;59316;52.964;7.102;2022-08-21T20:16:32;11.55;;;3.47;;
70757;SDS011;59316;52.964;7.102;2022-08-21T20:21:36;11.57;;;3.22;;
70757;SDS011;59316;52.964;7.102;2022-08-21T20:26:45;8.55;;;2.75;;
70757;SDS011;59316;52.964;7.102;2022-08-21T20:31:50;6.70;;;2.85;;
70757;SDS011;59316;52.964;7.102;2022-08-21T20:36:53;7.33;;;3.43;;
70757;SDS011;59316;52.964;7.102;2022-08-21T20:41:55;11.77;;;3.63;;
70757;SDS011;59316;52.964;7.102;2022-08-21T20:46:58;7.25;;;3.85;;
70757;SDS011;59316;52.964;7.102;2022-08-21T20:52:10;11.48;;;4.70;;
70757;SDS011;59316;52.964;7.102;2022-08-21T20:57:43;10.38;;;4.18;;
70757;SDS011;59316;52.964;7.102;2022-08-21T21:02:58;11.15;;;4.07;;
70757;SDS011;59316;52.964;7.102;2022-08-21T21:08:13;9.52;;;4.00;;
70757;SDS011;59316;52.964;7.102;2022-08-21T21:13:23;9.10;;;4.10;;
70757;SDS011;59316;52.964;7.102;2022-08-21T21:29:04;9.07;;;4.07;;
70757;SDS011;59316;52.964;7.102;2022-08-21T21:34:11;9.73;;;4.22;;
70757;SDS011;59316;52.964;7.102;2022-08-21T21:39:40;12.82;;;4.90;;
70757;SDS011;59316;52.964;7.102;2022-08-21T22:00:30;15.23;;;5.55;;
70757;SDS011;59316;52.964;7.102;2022-08-21T22:05:55;11.75;;;5.75;;
70757;SDS011;59316;52.964;7.102;2022-08-21T22:11:25;9.52;;;4.95;;
70757;SDS011;59316;52.964;7.102;2022-08-21T22:16:43;11.75;;;5.45;;
70757;SDS011;59316;52.964;7.102;2022-08-21T22:27:23;11.27;;;5.28;;
70757;SDS011;59316;52.964;7.102;2022-08-21T22:37:50;15.20;;;7.03;;
70757;SDS011;59316;52.964;7.102;2022-08-21T22:48:10;17.88;;;7.13;;
70757;SDS011;59316;52.964;7.102;2022-08-21T22:53:24;17.05;;;6.65;;
70757;SDS011;59316;52.964;7.102;2022-08-21T22:58:30;14.13;;;6.55;;
70757;SDS011;59316;52.964;7.102;2022-08-21T23:03:44;17.00;;;7.15;;
70757;SDS011;59316;52.964;7.102;2022-08-21T23:08:49;12.88;;;5.95;;
70757;SDS011;59316;52.964;7.102;2022-08-21T23:13:52;12.30;;;6.43;;
70757;SDS011;59316;52.964;7.102;2022-08-21T23:34:39;14.57;;;6.30;;
70757;SDS011;59316;52.964;7.102;2022-08-21T23:45:21;18.05;;;6.40;;
